Terminal Aerodrome Forecast
Issued by NWS Salt Lake City, UT

Home | Current Version | Previous Version | Text Only | Print | Product List | Glossary On
Versions: 1 2 3 4 5 6 7 8 9 10 11 12 13 14 15 16 17 18 19 20 21 22 23 24 25 26 27 28 29 30 31 32 33 34
000
FTUS45 KSLC 210113 AAA
TAFSLC
TAF AMD
KSLC 210113Z 2101/2206 33009KT P6SM FEW080 BKN100
     FM211100 35007KT P6SM BKN060 OVC100
     FM211900 33010G18KT P6SM VCSH SCT040 BKN060
     FM220000 34010KT 6SM -RA SCT025 BKN050=

USA.gov is the U.S. government's official web portal to all federal, state and local government web resources and services.